sensor_id;sensor_type;location;lat;lon;timestamp;temperature;humidity
11152;DHT22;5630;49.342;10.802;2023-04-25T00:01:40;8.50;99.90
11152;DHT22;5630;49.342;10.802;2023-04-25T00:04:07;8.40;99.90
11152;DHT22;5630;49.342;10.802;2023-04-25T00:06:34;8.40;99.90
11152;DHT22;5630;49.342;10.802;2023-04-25T00:09:02;8.30;99.90
11152;DHT22;5630;49.342;10.802;2023-04-25T00:11:28;8.30;99.90
11152;DHT22;5630;49.342;10.802;2023-04-25T00:13:55;8.20;99.90
11152;DHT22;5630;49.342;10.802;2023-04-25T00:16:21;8.30;99.90
11152;DHT22;5630;49.342;10.802;2023-04-25T00:18:46;8.30;99.90
11152;DHT22;5630;49.342;10.802;2023-04-25T00:21:20;8.30;99.90
11152;DHT22;5630;49.342;10.802;2023-04-25T00:23:46;8.30;99.90
11152;DHT22;5630;49.342;10.802;2023-04-25T00:26:12;8.30;99.90
11152;DHT22;5630;49.342;10.802;2023-04-25T00:28:39;8.40;99.90
11152;DHT22;5630;49.342;10.802;2023-04-25T00:31:05;8.30;99.90
11152;DHT22;5630;49.342;10.802;2023-04-25T00:33:30;8.30;99.90
11152;DHT22;5630;49.342;10.802;2023-04-25T00:35:56;8.30;99.90
11152;DHT22;5630;49.342;10.802;2023-04-25T00:38:21;8.30;99.90
11152;DHT22;5630;49.342;10.802;2023-04-25T00:40:47;8.20;99.90
11152;DHT22;5630;49.342;10.802;2023-04-25T00:43:13;8.20;99.90
11152;DHT22;5630;49.342;10.802;2023-04-25T00:45:39;8.20;99.90
11152;DHT22;5630;49.342;10.802;2023-04-25T00:48:05;8.20;99.90
11152;DHT22;5630;49.342;10.802;2023-04-25T00:50:33;8.20;99.90
11152;DHT22;5630;49.342;10.802;2023-04-25T00:52:59;8.20;99.90
11152;DHT22;5630;49.342;10.802;2023-04-25T00:55:24;8.10;99.90
11152;DHT22;5630;49.342;10.802;2023-04-25T00:57:50;8.20;99.90
11152;DHT22;5630;49.342;10.802;2023-04-25T01:00:16;8.20;99.90
11152;DHT22;5630;49.342;10.802;2023-04-25T01:02:43;8.20;99.90
11152;DHT22;5630;49.342;10.802;2023-04-25T01:05:10;8.20;99.90
11152;DHT22;5630;49.342;10.802;2023-04-25T01:07:37;8.20;99.90
11152;DHT22;5630;49.342;10.802;2023-04-25T01:10:03;8.20;99.90
11152;DHT22;5630;49.342;10.802;2023-04-25T01:12:30;8.20;99.90
11152;DHT22;5630;49.342;10.802;2023-04-25T01:14:56;8.20;99.90
11152;DHT22;5630;49.342;10.802;2023-04-25T01:17:21;8.30;99.90
11152;DHT22;5630;49.342;10.802;2023-04-25T01:19:47;8.20;99.90
11152;DHT22;5630;49.342;10.802;2023-04-25T01:22:14;8.20;99.90
11152;DHT22;5630;49.342;10.802;2023-04-25T01:24:41;8.30;99.90
11152;DHT22;5630;49.342;10.802;2023-04-25T01:27:07;8.20;99.90
11152;DHT22;5630;49.342;10.802;2023-04-25T01:29:33;8.10;99.90
11152;DHT22;5630;49.342;10.802;2023-04-25T01:32:00;8.10;99.90
11152;DHT22;5630;49.342;10.802;2023-04-25T01:34:26;8.10;99.90
11152;DHT22;5630;49.342;10.802;2023-04-25T01:36:52;8.10;99.90
11152;DHT22;5630;49.342;10.802;2023-04-25T01:39:19;8.00;99.90
11152;DHT22;5630;49.342;10.802;2023-04-25T01:41:48;8.00;99.90
11152;DHT22;5630;49.342;10.802;2023-04-25T01:44:14;8.00;99.90
11152;DHT22;5630;49.342;10.802;2023-04-25T01:46:41;8.00;99.90
11152;DHT22;5630;49.342;10.802;2023-04-25T01:49:06;8.00;99.90
11152;DHT22;5630;49.342;10.802;2023-04-25T01:51:32;8.00;99.90
11152;DHT22;5630;49.342;10.802;2023-04-25T01:53:58;8.00;99.90
11152;DHT22;5630;49.342;10.802;2023-04-25T01:56:24;8.00;99.90
11152;DHT22;5630;49.342;10.802;2023-04-25T01:58:51;8.00;99.90
11152;DHT22;5630;49.342;10.802;2023-04-25T02:01:16;7.90;99.90
11152;DHT22;5630;49.342;10.802;2023-04-25T02:03:43;8.00;99.90
11152;DHT22;5630;49.342;10.802;2023-04-25T02:06:08;8.00;99.90
11152;DHT22;5630;49.342;10.802;2023-04-25T02:08:34;7.90;99.90
11152;DHT22;5630;49.342;10.802;2023-04-25T02:11:00;8.00;99.90
11152;DHT22;5630;49.342;10.802;2023-04-25T02:13:26;8.00;99.90
11152;DHT22;5630;49.342;10.802;2023-04-25T02:15:51;8.00;99.90
11152;DHT22;5630;49.342;10.802;2023-04-25T02:18:17;7.90;99.90
11152;DHT22;5630;49.342;10.802;2023-04-25T02:20:43;7.90;99.90
11152;DHT22;5630;49.342;10.802;2023-04-25T02:23:09;7.90;99.90
11152;DHT22;5630;49.342;10.802;2023-04-25T02:25:35;8.00;99.90
11152;DHT22;5630;49.342;10.802;2023-04-25T02:28:00;8.00;99.90
11152;DHT22;5630;49.342;10.802;2023-04-25T02:30:26;8.00;99.90
11152;DHT22;5630;49.342;10.802;2023-04-25T02:32:51;8.00;99.90
11152;DHT22;5630;49.342;10.802;2023-04-25T02:35:17;8.00;99.90
11152;DHT22;5630;49.342;10.802;2023-04-25T02:37:43;8.00;99.90
11152;DHT22;5630;49.342;10.802;2023-04-25T02:40:09;8.00;99.90
11152;DHT22;5630;49.342;10.802;2023-04-25T02:42:34;8.00;99.90
11152;DHT22;5630;49.342;10.802;2023-04-25T02:45:00;8.00;99.90
11152;DHT22;5630;49.342;10.802;2023-04-25T02:47:26;8.00;99.90
11152;DHT22;5630;49.342;10.802;2023-04-25T02:49:52;8.00;99.90
11152;DHT22;5630;49.342;10.802;2023-04-25T02:52:17;7.90;99.90
11152;DHT22;5630;49.342;10.802;2023-04-25T02:54:43;7.90;99.90
11152;DHT22;5630;49.342;10.802;2023-04-25T02:57:09;7.90;99.90
11152;DHT22;5630;49.342;10.802;2023-04-25T02:59:34;7.90;99.90
11152;DHT22;5630;49.342;10.802;2023-04-25T03:02:01;7.90;99.90
11152;DHT22;5630;49.342;10.802;2023-04-25T03:04:27;7.90;99.90
11152;DHT22;5630;49.342;10.802;2023-04-25T03:06:53;7.90;99.90
11152;DHT22;5630;49.342;10.802;2023-04-25T03:09:18;7.80;99.90
11152;DHT22;5630;49.342;10.802;2023-04-25T03:11:45;7.80;99.90
11152;DHT22;5630;49.342;10.802;2023-04-25T03:14:11;7.80;99.90
11152;DHT22;5630;49.342;10.802;2023-04-25T03:16:36;7.70;99.90
11152;DHT22;5630;49.342;10.802;2023-04-25T03:19:03;7.70;99.90
11152;DHT22;5630;49.342;10.802;2023-04-25T03:21:29;7.80;99.90
11152;DHT22;5630;49.342;10.802;2023-04-25T03:23:57;7.70;99.90
11152;DHT22;5630;49.342;10.802;2023-04-25T03:26:23;7.70;99.90
11152;DHT22;5630;49.342;10.802;2023-04-25T03:28:48;7.80;99.90
11152;DHT22;5630;49.342;10.802;2023-04-25T03:31:14;7.70;99.90
11152;DHT22;5630;49.342;10.802;2023-04-25T03:33:40;7.80;99.90
11152;DHT22;5630;49.342;10.802;2023-04-25T03:36:06;7.80;99.90
11152;DHT22;5630;49.342;10.802;2023-04-25T03:38:31;7.70;99.90
11152;DHT22;5630;49.342;10.802;2023-04-25T03:40:57;7.70;99.90
11152;DHT22;5630;49.342;10.802;2023-04-25T03:43:23;7.70;99.90
11152;DHT22;5630;49.342;10.802;2023-04-25T03:45:48;7.70;99.90
11152;DHT22;5630;49.342;10.802;2023-04-25T03:48:14;7.70;99.90
11152;DHT22;5630;49.342;10.802;2023-04-25T03:50:39;7.60;99.90
11152;DHT22;5630;49.342;10.802;2023-04-25T03:53:05;7.70;99.90
11152;DHT22;5630;49.342;10.802;2023-04-25T03:55:30;7.70;99.90
11152;DHT22;5630;49.342;10.802;2023-04-25T03:57:57;7.70;99.90
11152;DHT22;5630;49.342;10.802;2023-04-25T04:00:24;7.70;99.90
11152;DHT22;5630;49.342;10.802;2023-04-25T04:02:49;7.70;99.90
11152;DHT22;5630;49.342;10.802;2023-04-25T04:05:15;7.60;99.90
11152;DHT22;5630;49.342;10.802;2023-04-25T04:07:41;7.50;99.90
11152;DHT22;5630;49.342;10.802;2023-04-25T04:10:11;7.50;99.90
11152;DHT22;5630;49.342;10.802;2023-04-25T04:12:37;7.50;99.90
11152;DHT22;5630;49.342;10.802;2023-04-25T04:15:04;7.50;99.90
11152;DHT22;5630;49.342;10.802;2023-04-25T04:17:30;7.50;99.90
11152;DHT22;5630;49.342;10.802;2023-04-25T04:19:56;7.50;99.90
11152;DHT22;5630;49.342;10.802;2023-04-25T04:22:22;7.40;99.90
11152;DHT22;5630;49.342;10.802;2023-04-25T04:24:48;7.50;99.90
11152;DHT22;5630;49.342;10.802;2023-04-25T04:27:18;7.40;99.90
11152;DHT22;5630;49.342;10.802;2023-04-25T04:29:45;7.40;99.90
11152;DHT22;5630;49.342;10.802;2023-04-25T04:32:11;7.50;99.90
11152;DHT22;5630;49.342;10.802;2023-04-25T04:34:37;7.30;99.90
11152;DHT22;5630;49.342;10.802;2023-04-25T04:37:02;7.40;99.90
11152;DHT22;5630;49.342;10.802;2023-04-25T04:39:28;7.40;99.90
11152;DHT22;5630;49.342;10.802;2023-04-25T04:41:54;7.40;99.90
11152;DHT22;5630;49.342;10.802;2023-04-25T04:44:19;7.40;99.90
11152;DHT22;5630;49.342;10.802;2023-04-25T04:46:45;7.50;99.90
11152;DHT22;5630;49.342;10.802;2023-04-25T04:49:12;7.50;99.90
11152;DHT22;5630;49.342;10.802;2023-04-25T04:51:39;7.50;99.90
11152;DHT22;5630;49.342;10.802;2023-04-25T04:54:05;7.60;99.90
11152;DHT22;5630;49.342;10.802;2023-04-25T04:56:32;7.60;99.90
11152;DHT22;5630;49.342;10.802;2023-04-25T04:58:58;7.60;99.90
11152;DHT22;5630;49.342;10.802;2023-04-25T05:01:24;7.70;99.90
11152;DHT22;5630;49.342;10.802;2023-04-25T05:03:49;7.70;99.90
11152;DHT22;5630;49.342;10.802;2023-04-25T05:06:16;7.70;99.90
11152;DHT22;5630;49.342;10.802;2023-04-25T05:08:42;7.70;99.90
11152;DHT22;5630;49.342;10.802;2023-04-25T05:11:07;7.70;99.90
11152;DHT22;5630;49.342;10.802;2023-04-25T05:13:33;7.70;99.90
11152;DHT22;5630;49.342;10.802;2023-04-25T05:15:59;7.70;99.90
11152;DHT22;5630;49.342;10.802;2023-04-25T05:18:24;7.70;99.90
11152;DHT22;5630;49.342;10.802;2023-04-25T05:20:50;7.70;99.90
11152;DHT22;5630;49.342;10.802;2023-04-25T05:23:15;7.80;99.90
11152;DHT22;5630;49.342;10.802;2023-04-25T05:25:41;7.90;99.90
11152;DHT22;5630;49.342;10.802;2023-04-25T05:28:07;7.80;99.90
11152;DHT22;5630;49.342;10.802;2023-04-25T05:30:34;7.90;99.90
11152;DHT22;5630;49.342;10.802;2023-04-25T05:33:00;7.80;99.90
11152;DHT22;5630;49.342;10.802;2023-04-25T05:35:25;7.80;99.90
11152;DHT22;5630;49.342;10.802;2023-04-25T05:37:51;7.90;99.90
11152;DHT22;5630;49.342;10.802;2023-04-25T05:40:17;7.90;99.90
11152;DHT22;5630;49.342;10.802;2023-04-25T05:42:42;7.90;99.90
11152;DHT22;5630;49.342;10.802;2023-04-25T05:45:08;8.10;99.90
11152;DHT22;5630;49.342;10.802;2023-04-25T05:47:34;8.90;99.90
11152;DHT22;5630;49.342;10.802;2023-04-25T05:49:59;9.80;99.90
11152;DHT22;5630;49.342;10.802;2023-04-25T05:52:25;10.20;99.90
11152;DHT22;5630;49.342;10.802;2023-04-25T05:54:51;10.50;99.90
11152;DHT22;5630;49.342;10.802;2023-04-25T05:57:24;11.00;99.90
11152;DHT22;5630;49.342;10.802;2023-04-25T05:59:50;11.30;99.90
11152;DHT22;5630;49.342;10.802;2023-04-25T06:02:15;11.40;99.90
11152;DHT22;5630;49.342;10.802;2023-04-25T06:04:41;11.80;99.90
11152;DHT22;5630;49.342;10.802;2023-04-25T06:07:07;11.90;99.90
11152;DHT22;5630;49.342;10.802;2023-04-25T06:09:32;11.40;99.90
11152;DHT22;5630;49.342;10.802;2023-04-25T06:11:58;10.90;99.90
11152;DHT22;5630;49.342;10.802;2023-04-25T06:14:23;10.60;99.90
11152;DHT22;5630;49.342;10.802;2023-04-25T06:16:49;10.80;99.90
11152;DHT22;5630;49.342;10.802;2023-04-25T06:19:14;10.90;99.90
11152;DHT22;5630;49.342;10.802;2023-04-25T06:21:43;11.20;99.90
11152;DHT22;5630;49.342;10.802;2023-04-25T06:24:08;10.90;99.90
11152;DHT22;5630;49.342;10.802;2023-04-25T06:26:34;10.50;99.90
11152;DHT22;5630;49.342;10.802;2023-04-25T06:28:59;10.10;99.90
11152;DHT22;5630;49.342;10.802;2023-04-25T06:31:25;10.20;99.90
11152;DHT22;5630;49.342;10.802;2023-04-25T06:33:51;9.80;99.90
11152;DHT22;5630;49.342;10.802;2023-04-25T06:36:23;9.40;99.90
11152;DHT22;5630;49.342;10.802;2023-04-25T06:38:53;9.10;99.90
11152;DHT22;5630;49.342;10.802;2023-04-25T06:41:20;9.00;99.90
11152;DHT22;5630;49.342;10.802;2023-04-25T06:43:46;8.90;99.90
11152;DHT22;5630;49.342;10.802;2023-04-25T06:46:11;8.80;99.90
11152;DHT22;5630;49.342;10.802;2023-04-25T06:48:37;8.70;99.90
11152;DHT22;5630;49.342;10.802;2023-04-25T06:51:03;8.70;99.90
11152;DHT22;5630;49.342;10.802;2023-04-25T06:53:28;8.70;99.90
11152;DHT22;5630;49.342;10.802;2023-04-25T06:55:54;8.60;99.90
11152;DHT22;5630;49.342;10.802;2023-04-25T06:58:19;8.50;99.90
11152;DHT22;5630;49.342;10.802;2023-04-25T07:00:45;8.60;99.90
11152;DHT22;5630;49.342;10.802;2023-04-25T07:03:11;8.50;99.90
11152;DHT22;5630;49.342;10.802;2023-04-25T07:05:37;8.50;99.90
11152;DHT22;5630;49.342;10.802;2023-04-25T07:08:02;8.50;99.90
11152;DHT22;5630;49.342;10.802;2023-04-25T07:10:28;8.30;99.90
11152;DHT22;5630;49.342;10.802;2023-04-25T07:12:54;8.20;99.90
11152;DHT22;5630;49.342;10.802;2023-04-25T07:15:19;7.90;99.90
11152;DHT22;5630;49.342;10.802;2023-04-25T07:17:45;7.70;99.90
11152;DHT22;5630;49.342;10.802;2023-04-25T07:20:11;7.50;99.90
11152;DHT22;5630;49.342;10.802;2023-04-25T07:22:37;7.40;99.90
11152;DHT22;5630;49.342;10.802;2023-04-25T07:25:02;7.60;99.90
11152;DHT22;5630;49.342;10.802;2023-04-25T07:27:30;7.50;99.90
11152;DHT22;5630;49.342;10.802;2023-04-25T07:29:55;7.40;99.90
11152;DHT22;5630;49.342;10.802;2023-04-25T07:34:47;7.40;99.90
11152;DHT22;5630;49.342;10.802;2023-04-25T07:37:13;7.50;99.90
11152;DHT22;5630;49.342;10.802;2023-04-25T07:39:39;7.60;99.90
11152;DHT22;5630;49.342;10.802;2023-04-25T07:42:05;8.00;99.90
11152;DHT22;5630;49.342;10.802;2023-04-25T07:44:34;7.90;99.90
11152;DHT22;5630;49.342;10.802;2023-04-25T07:47:05;7.80;99.90
11152;DHT22;5630;49.342;10.802;2023-04-25T07:49:33;7.70;99.90
11152;DHT22;5630;49.342;10.802;2023-04-25T07:51:59;7.60;99.90
11152;DHT22;5630;49.342;10.802;2023-04-25T07:54:24;7.60;99.90
11152;DHT22;5630;49.342;10.802;2023-04-25T07:56:50;7.60;99.90
11152;DHT22;5630;49.342;10.802;2023-04-25T07:59:16;7.60;99.90
11152;DHT22;5630;49.342;10.802;2023-04-25T08:01:41;7.60;99.90
11152;DHT22;5630;49.342;10.802;2023-04-25T08:04:07;7.70;99.90
11152;DHT22;5630;49.342;10.802;2023-04-25T08:06:32;7.70;99.90
11152;DHT22;5630;49.342;10.802;2023-04-25T08:08:58;7.80;99.90
11152;DHT22;5630;49.342;10.802;2023-04-25T08:11:24;7.70;99.90
11152;DHT22;5630;49.342;10.802;2023-04-25T08:13:50;7.70;99.90
11152;DHT22;5630;49.342;10.802;2023-04-25T08:16:16;7.70;99.90
11152;DHT22;5630;49.342;10.802;2023-04-25T08:18:41;7.80;99.90
11152;DHT22;5630;49.342;10.802;2023-04-25T08:21:07;7.80;99.90
11152;DHT22;5630;49.342;10.802;2023-04-25T08:23:34;7.90;99.90
11152;DHT22;5630;49.342;10.802;2023-04-25T08:25:59;8.00;99.90
11152;DHT22;5630;49.342;10.802;2023-04-25T08:28:25;8.10;99.90
11152;DHT22;5630;49.342;10.802;2023-04-25T08:30:51;8.20;99.90
11152;DHT22;5630;49.342;10.802;2023-04-25T08:33:16;8.20;99.90
11152;DHT22;5630;49.342;10.802;2023-04-25T08:35:43;8.30;99.90
11152;DHT22;5630;49.342;10.802;2023-04-25T08:38:09;8.50;99.90
11152;DHT22;5630;49.342;10.802;2023-04-25T08:40:38;8.70;99.90
11152;DHT22;5630;49.342;10.802;2023-04-25T08:43:05;9.20;99.90
11152;DHT22;5630;49.342;10.802;2023-04-25T08:45:34;9.30;99.90
11152;DHT22;5630;49.342;10.802;2023-04-25T08:48:02;9.70;99.90
11152;DHT22;5630;49.342;10.802;2023-04-25T08:50:28;10.00;99.90
11152;DHT22;5630;49.342;10.802;2023-04-25T08:52:54;10.40;99.90
11152;DHT22;5630;49.342;10.802;2023-04-25T08:55:23;10.80;99.90
11152;DHT22;5630;49.342;10.802;2023-04-25T08:57:49;11.10;99.90
11152;DHT22;5630;49.342;10.802;2023-04-25T09:00:16;11.30;99.90
11152;DHT22;5630;49.342;10.802;2023-04-25T09:02:42;11.20;99.90
11152;DHT22;5630;49.342;10.802;2023-04-25T09:05:09;11.30;99.90
11152;DHT22;5630;49.342;10.802;2023-04-25T09:07:37;11.50;99.90
11152;DHT22;5630;49.342;10.802;2023-04-25T09:10:03;11.70;99.90
11152;DHT22;5630;49.342;10.802;2023-04-25T09:12:29;11.80;99.90
11152;DHT22;5630;49.342;10.802;2023-04-25T09:15:21;12.00;99.90
11152;DHT22;5630;49.342;10.802;2023-04-25T09:17:58;12.10;99.90
11152;DHT22;5630;49.342;10.802;2023-04-25T09:20:24;12.40;99.90
11152;DHT22;5630;49.342;10.802;2023-04-25T09:23:04;12.20;99.90
11152;DHT22;5630;49.342;10.802;2023-04-25T09:25:35;12.80;99.90
11152;DHT22;5630;49.342;10.802;2023-04-25T09:28:05;13.30;99.90
11152;DHT22;5630;49.342;10.802;2023-04-25T09:33:05;14.30;99.90
11152;DHT22;5630;49.342;10.802;2023-04-25T09:35:53;14.30;99.90
11152;DHT22;5630;49.342;10.802;2023-04-25T09:38:21;14.30;99.90
11152;DHT22;5630;49.342;10.802;2023-04-25T09:40:47;14.20;99.90
11152;DHT22;5630;49.342;10.802;2023-04-25T09:43:21;14.10;99.90
11152;DHT22;5630;49.342;10.802;2023-04-25T09:45:48;14.10;99.90
11152;DHT22;5630;49.342;10.802;2023-04-25T09:48:18;14.30;99.90
11152;DHT22;5630;49.342;10.802;2023-04-25T09:50:44;14.50;99.90
11152;DHT22;5630;49.342;10.802;2023-04-25T09:53:10;14.20;99.90
11152;DHT22;5630;49.342;10.802;2023-04-25T09:55:36;14.00;99.90
11152;DHT22;5630;49.342;10.802;2023-04-25T09:58:06;14.50;99.90
11152;DHT22;5630;49.342;10.802;2023-04-25T10:00:33;14.60;99.90
11152;DHT22;5630;49.342;10.802;2023-04-25T10:03:04;13.40;99.90
11152;DHT22;5630;49.342;10.802;2023-04-25T10:05:32;12.80;99.90
11152;DHT22;5630;49.342;10.802;2023-04-25T10:08:02;12.90;99.90
11152;DHT22;5630;49.342;10.802;2023-04-25T10:10:29;12.40;99.90
11152;DHT22;5630;49.342;10.802;2023-04-25T10:12:58;12.50;99.90
11152;DHT22;5630;49.342;10.802;2023-04-25T10:15:24;12.70;99.90
11152;DHT22;5630;49.342;10.802;2023-04-25T10:17:50;13.00;99.90
11152;DHT22;5630;49.342;10.802;2023-04-25T10:20:16;13.10;99.90
11152;DHT22;5630;49.342;10.802;2023-04-25T10:22:44;13.50;99.90
11152;DHT22;5630;49.342;10.802;2023-04-25T10:25:10;14.10;99.90
11152;DHT22;5630;49.342;10.802;2023-04-25T10:27:38;14.30;99.90
11152;DHT22;5630;49.342;10.802;2023-04-25T10:30:09;14.50;99.90
11152;DHT22;5630;49.342;10.802;2023-04-25T10:32:37;15.10;99.90
11152;DHT22;5630;49.342;10.802;2023-04-25T10:35:17;15.60;99.90
11152;DHT22;5630;49.342;10.802;2023-04-25T10:38:08;15.70;99.90
11152;DHT22;5630;49.342;10.802;2023-04-25T10:40:34;15.50;99.90
11152;DHT22;5630;49.342;10.802;2023-04-25T10:45:59;15.30;99.90
11152;DHT22;5630;49.342;10.802;2023-04-25T10:48:25;14.70;99.90
11152;DHT22;5630;49.342;10.802;2023-04-25T10:51:09;14.70;99.90
11152;DHT22;5630;49.342;10.802;2023-04-25T10:53:35;14.30;99.90
11152;DHT22;5630;49.342;10.802;2023-04-25T10:56:16;14.20;99.90
11152;DHT22;5630;49.342;10.802;2023-04-25T10:58:43;14.70;99.90
11152;DHT22;5630;49.342;10.802;2023-04-25T11:01:09;14.70;99.90
11152;DHT22;5630;49.342;10.802;2023-04-25T11:03:42;14.50;99.90
11152;DHT22;5630;49.342;10.802;2023-04-25T11:08:49;13.80;99.90
11152;DHT22;5630;49.342;10.802;2023-04-25T11:11:17;13.90;99.90
11152;DHT22;5630;49.342;10.802;2023-04-25T11:13:43;13.80;99.90
11152;DHT22;5630;49.342;10.802;2023-04-25T11:16:08;13.30;99.90
11152;DHT22;5630;49.342;10.802;2023-04-25T11:18:34;13.20;99.90
11152;DHT22;5630;49.342;10.802;2023-04-25T11:21:00;12.50;99.90
11152;DHT22;5630;49.342;10.802;2023-04-25T11:23:27;12.40;99.90
11152;DHT22;5630;49.342;10.802;2023-04-25T11:25:54;12.40;99.90
11152;DHT22;5630;49.342;10.802;2023-04-25T11:28:22;12.20;99.90
11152;DHT22;5630;49.342;10.802;2023-04-25T11:30:49;12.30;99.90
11152;DHT22;5630;49.342;10.802;2023-04-25T11:33:16;12.40;99.90
11152;DHT22;5630;49.342;10.802;2023-04-25T11:35:41;12.20;99.90
11152;DHT22;5630;49.342;10.802;2023-04-25T11:38:07;12.10;99.90
11152;DHT22;5630;49.342;10.802;2023-04-25T11:40:33;12.20;99.90
11152;DHT22;5630;49.342;10.802;2023-04-25T11:43:00;11.70;99.90
11152;DHT22;5630;49.342;10.802;2023-04-25T11:45:26;11.50;99.90
11152;DHT22;5630;49.342;10.802;2023-04-25T11:47:52;11.50;99.90
11152;DHT22;5630;49.342;10.802;2023-04-25T11:50:18;11.40;99.90
11152;DHT22;5630;49.342;10.802;2023-04-25T11:52:47;11.50;99.90
11152;DHT22;5630;49.342;10.802;2023-04-25T11:55:15;11.80;99.90
11152;DHT22;5630;49.342;10.802;2023-04-25T11:57:42;12.20;99.90
11152;DHT22;5630;49.342;10.802;2023-04-25T12:02:35;12.10;99.90
11152;DHT22;5630;49.342;10.802;2023-04-25T12:05:01;12.00;99.90
11152;DHT22;5630;49.342;10.802;2023-04-25T12:07:31;11.70;99.90
11152;DHT22;5630;49.342;10.802;2023-04-25T12:09:57;11.70;99.90
11152;DHT22;5630;49.342;10.802;2023-04-25T12:12:27;11.80;99.90
11152;DHT22;5630;49.342;10.802;2023-04-25T12:14:53;11.80;99.90
11152;DHT22;5630;49.342;10.802;2023-04-25T12:17:21;11.70;99.90
11152;DHT22;5630;49.342;10.802;2023-04-25T12:19:47;12.20;99.90
11152;DHT22;5630;49.342;10.802;2023-04-25T12:22:23;12.30;99.90
11152;DHT22;5630;49.342;10.802;2023-04-25T12:24:49;12.30;99.90
11152;DHT22;5630;49.342;10.802;2023-04-25T12:27:16;12.50;99.90
11152;DHT22;5630;49.342;10.802;2023-04-25T12:29:50;12.40;99.90
11152;DHT22;5630;49.342;10.802;2023-04-25T12:32:16;12.00;99.90
11152;DHT22;5630;49.342;10.802;2023-04-25T12:34:43;11.90;99.90
11152;DHT22;5630;49.342;10.802;2023-04-25T12:37:09;11.80;99.90
11152;DHT22;5630;49.342;10.802;2023-04-25T12:39:34;11.70;99.90
11152;DHT22;5630;49.342;10.802;2023-04-25T12:42:00;11.60;99.90
11152;DHT22;5630;49.342;10.802;2023-04-25T12:44:26;11.80;99.90
11152;DHT22;5630;49.342;10.802;2023-04-25T12:46:52;11.90;99.90
11152;DHT22;5630;49.342;10.802;2023-04-25T12:49:18;12.00;99.90
11152;DHT22;5630;49.342;10.802;2023-04-25T12:51:43;12.00;99.90
11152;DHT22;5630;49.342;10.802;2023-04-25T12:54:09;12.00;99.90
11152;DHT22;5630;49.342;10.802;2023-04-25T12:56:35;12.00;99.90
11152;DHT22;5630;49.342;10.802;2023-04-25T12:59:02;11.90;99.90
11152;DHT22;5630;49.342;10.802;2023-04-25T13:01:30;11.90;99.90
11152;DHT22;5630;49.342;10.802;2023-04-25T13:03:56;11.70;99.90
11152;DHT22;5630;49.342;10.802;2023-04-25T13:06:22;11.50;99.90
11152;DHT22;5630;49.342;10.802;2023-04-25T13:08:47;11.60;99.90
11152;DHT22;5630;49.342;10.802;2023-04-25T13:11:13;11.50;99.90
11152;DHT22;5630;49.342;10.802;2023-04-25T13:13:40;11.30;99.90
11152;DHT22;5630;49.342;10.802;2023-04-25T13:16:07;11.20;99.90
11152;DHT22;5630;49.342;10.802;2023-04-25T13:18:33;11.20;99.90
11152;DHT22;5630;49.342;10.802;2023-04-25T13:20:59;11.40;99.90
11152;DHT22;5630;49.342;10.802;2023-04-25T13:23:27;11.60;99.90
11152;DHT22;5630;49.342;10.802;2023-04-25T13:25:53;11.90;99.90
11152;DHT22;5630;49.342;10.802;2023-04-25T13:28:20;12.30;99.90
11152;DHT22;5630;49.342;10.802;2023-04-25T13:30:46;12.20;99.90
11152;DHT22;5630;49.342;10.802;2023-04-25T13:33:13;12.10;99.90
11152;DHT22;5630;49.342;10.802;2023-04-25T13:35:39;11.90;99.90
11152;DHT22;5630;49.342;10.802;2023-04-25T13:38:05;11.80;99.90
11152;DHT22;5630;49.342;10.802;2023-04-25T13:40:31;11.50;99.90
11152;DHT22;5630;49.342;10.802;2023-04-25T13:42:57;11.50;99.90
11152;DHT22;5630;49.342;10.802;2023-04-25T13:45:23;11.40;99.90
11152;DHT22;5630;49.342;10.802;2023-04-25T13:47:49;11.30;99.90
11152;DHT22;5630;49.342;10.802;2023-04-25T13:50:14;11.30;99.90
11152;DHT22;5630;49.342;10.802;2023-04-25T13:52:41;11.30;99.90
11152;DHT22;5630;49.342;10.802;2023-04-25T13:55:07;11.20;99.90
11152;DHT22;5630;49.342;10.802;2023-04-25T13:57:34;11.20;99.90
11152;DHT22;5630;49.342;10.802;2023-04-25T14:00:00;11.10;99.90
11152;DHT22;5630;49.342;10.802;2023-04-25T14:02:31;11.20;99.90
11152;DHT22;5630;49.342;10.802;2023-04-25T14:04:57;11.40;99.90
11152;DHT22;5630;49.342;10.802;2023-04-25T14:07:22;11.40;99.90
11152;DHT22;5630;49.342;10.802;2023-04-25T14:09:48;11.30;99.90
11152;DHT22;5630;49.342;10.802;2023-04-25T14:12:13;11.20;99.90
11152;DHT22;5630;49.342;10.802;2023-04-25T14:14:39;11.20;99.90
11152;DHT22;5630;49.342;10.802;2023-04-25T14:17:05;11.10;99.90
11152;DHT22;5630;49.342;10.802;2023-04-25T14:19:31;11.00;99.90
11152;DHT22;5630;49.342;10.802;2023-04-25T14:21:57;11.10;99.90
11152;DHT22;5630;49.342;10.802;2023-04-25T14:24:22;10.90;99.90
11152;DHT22;5630;49.342;10.802;2023-04-25T14:26:48;11.00;99.90
11152;DHT22;5630;49.342;10.802;2023-04-25T14:29:14;11.10;99.90
11152;DHT22;5630;49.342;10.802;2023-04-25T14:31:40;11.10;99.90
11152;DHT22;5630;49.342;10.802;2023-04-25T14:34:06;11.10;99.90
11152;DHT22;5630;49.342;10.802;2023-04-25T14:36:33;11.00;99.90
11152;DHT22;5630;49.342;10.802;2023-04-25T14:38:59;10.90;99.90
11152;DHT22;5630;49.342;10.802;2023-04-25T14:41:25;10.80;99.90
11152;DHT22;5630;49.342;10.802;2023-04-25T14:43:51;10.80;99.90
11152;DHT22;5630;49.342;10.802;2023-04-25T14:46:21;10.70;99.90
11152;DHT22;5630;49.342;10.802;2023-04-25T14:51:13;10.60;99.90
11152;DHT22;5630;49.342;10.802;2023-04-25T14:53:40;10.40;99.90
11152;DHT22;5630;49.342;10.802;2023-04-25T14:56:06;10.50;99.90
11152;DHT22;5630;49.342;10.802;2023-04-25T14:58:32;10.40;99.90
11152;DHT22;5630;49.342;10.802;2023-04-25T15:00:59;10.50;99.90
11152;DHT22;5630;49.342;10.802;2023-04-25T15:03:24;10.60;99.90
11152;DHT22;5630;49.342;10.802;2023-04-25T15:05:50;10.70;99.90
11152;DHT22;5630;49.342;10.802;2023-04-25T15:08:16;10.90;99.90
11152;DHT22;5630;49.342;10.802;2023-04-25T15:10:41;10.90;99.90
11152;DHT22;5630;49.342;10.802;2023-04-25T15:13:07;10.80;99.90
11152;DHT22;5630;49.342;10.802;2023-04-25T15:15:33;10.70;99.90
11152;DHT22;5630;49.342;10.802;2023-04-25T15:17:58;10.70;99.90
11152;DHT22;5630;49.342;10.802;2023-04-25T15:20:24;10.60;99.90
11152;DHT22;5630;49.342;10.802;2023-04-25T15:22:50;10.90;99.90
11152;DHT22;5630;49.342;10.802;2023-04-25T15:25:16;10.90;99.90
11152;DHT22;5630;49.342;10.802;2023-04-25T15:27:45;10.90;99.90
11152;DHT22;5630;49.342;10.802;2023-04-25T15:30:14;10.90;99.90
11152;DHT22;5630;49.342;10.802;2023-04-25T15:32:44;10.80;99.90
11152;DHT22;5630;49.342;10.802;2023-04-25T15:35:13;10.60;99.90
11152;DHT22;5630;49.342;10.802;2023-04-25T15:37:38;10.70;99.90
11152;DHT22;5630;49.342;10.802;2023-04-25T15:40:09;10.80;99.90
11152;DHT22;5630;49.342;10.802;2023-04-25T15:42:50;11.00;99.90
11152;DHT22;5630;49.342;10.802;2023-04-25T15:45:17;11.10;99.90
11152;DHT22;5630;49.342;10.802;2023-04-25T15:47:43;11.00;99.90
11152;DHT22;5630;49.342;10.802;2023-04-25T15:50:10;11.00;99.90
11152;DHT22;5630;49.342;10.802;2023-04-25T15:52:37;11.00;99.90